Time;durP1;ratioP1;P1;durP2;ratioP2;P2;SDS_P1;SDS_P2;PMS_P1;PMS_P2;Temp;Humidity;BMP_temperature;BMP_pressure;BME280_temperature;BME280_humidity;BME280_pressure;Samples;Min_cycle;Max_cycle;Signal;HPM_P1;HPM_P2
2022/02/14 00:00:14;;;;;;;10.65;4.35;;;;;;;;;;4826134;29;20049;-76
2022/02/14 00:02:40;;;;;;;8.48;3.92;;;;;;;;;;4806693;29;20073;-75
2022/02/14 00:05:07;;;;;;;13.82;4.18;;;;;;;;;;4811532;29;20053;-74
2022/02/14 00:07:33;;;;;;;9.13;4.30;;;;;;;;;;4825376;29;20053;-73
2022/02/14 00:09:59;;;;;;;8.95;4.50;;;;;;;;;;4825796;29;20134;-74
2022/02/14 00:12:25;;;;;;;10.25;4.70;;;;;;;;;;4821849;29;20050;-74
2022/02/14 00:14:51;;;;;;;11.30;4.93;;;;;;;;;;4808672;29;20398;-74
2022/02/14 00:17:17;;;;;;;8.65;4.78;;;;;;;;;;4812959;29;20049;-73
2022/02/14 00:19:50;;;;;;;8.40;4.35;;;;;;;;;;4809894;29;20059;-75
2022/02/14 00:22:17;;;;;;;10.10;4.68;;;;;;;;;;4828099;29;20053;-74
2022/02/14 00:24:43;;;;;;;7.63;4.00;;;;;;;;;;4821932;29;20130;-74
2022/02/14 00:27:09;;;;;;;12.68;4.13;;;;;;;;;;4820615;29;20046;-74
2022/02/14 00:29:35;;;;;;;7.72;4.60;;;;;;;;;;4821732;29;20122;-73
2022/02/14 00:32:02;;;;;;;8.40;3.97;;;;;;;;;;4830427;29;20507;-73
2022/02/14 00:34:28;;;;;;;9.88;4.30;;;;;;;;;;4822392;29;20102;-75
2022/02/14 00:36:54;;;;;;;12.38;4.40;;;;;;;;;;4823487;29;20082;-74
2022/02/14 00:39:20;;;;;;;10.68;4.30;;;;;;;;;;4823407;29;20097;-74
2022/02/14 00:41:46;;;;;;;10.30;4.30;;;;;;;;;;4824583;29;20149;-73
2022/02/14 00:44:12;;;;;;;11.75;3.90;;;;;;;;;;4825807;29;20045;-74
2022/02/14 00:46:38;;;;;;;7.18;3.85;;;;;;;;;;4824305;29;20470;-74
2022/02/14 00:49:04;;;;;;;10.77;4.38;;;;;;;;;;4809506;29;20056;-74
2022/02/14 00:51:30;;;;;;;6.50;3.85;;;;;;;;;;4815512;29;20045;-75
2022/02/14 00:53:56;;;;;;;10.10;4.20;;;;;;;;;;4824947;29;20200;-73
2022/02/14 00:56:22;;;;;;;8.60;3.80;;;;;;;;;;4808969;29;20410;-74
2022/02/14 00:58:48;;;;;;;9.48;4.18;;;;;;;;;;4823183;29;20077;-74
2022/02/14 01:01:14;;;;;;;9.75;3.75;;;;;;;;;;4823292;29;20094;-75
2022/02/14 01:03:40;;;;;;;8.65;3.65;;;;;;;;;;4823895;29;20046;-75
2022/02/14 01:06:06;;;;;;;8.30;3.78;;;;;;;;;;4820585;29;20050;-73
2022/02/14 01:08:33;;;;;;;12.20;4.47;;;;;;;;;;4823021;29;20057;-74
2022/02/14 01:10:59;;;;;;;13.38;3.85;;;;;;;;;;4823249;29;20471;-73
2022/02/14 01:13:25;;;;;;;11.00;4.07;;;;;;;;;;4807005;29;20050;-74
2022/02/14 01:15:51;;;;;;;11.05;4.07;;;;;;;;;;4823046;29;20054;-73
2022/02/14 01:18:17;;;;;;;11.48;4.82;;;;;;;;;;4825172;29;20057;-73
2022/02/14 01:20:43;;;;;;;14.05;4.28;;;;;;;;;;4824021;29;20442;-74
2022/02/14 01:23:09;;;;;;;10.23;3.80;;;;;;;;;;4822927;29;20060;-73
2022/02/14 01:25:35;;;;;;;12.80;4.20;;;;;;;;;;4807669;29;20150;-73
2022/02/14 01:28:01;;;;;;;10.93;3.45;;;;;;;;;;4823251;29;20114;-73
2022/02/14 01:30:27;;;;;;;7.20;3.47;;;;;;;;;;4836685;29;20062;-73
2022/02/14 01:32:53;;;;;;;12.32;4.15;;;;;;;;;;4816056;29;20054;-73
2022/02/14 01:35:19;;;;;;;12.25;4.20;;;;;;;;;;4823713;29;20054;-74
2022/02/14 01:37:45;;;;;;;8.90;4.35;;;;;;;;;;4824687;29;20565;-73
2022/02/14 01:40:13;;;;;;;11.90;4.32;;;;;;;;;;4822893;29;20110;-76
2022/02/14 01:42:40;;;;;;;8.25;3.53;;;;;;;;;;4854223;29;20113;-73
2022/02/14 01:45:08;;;;;;;8.45;3.47;;;;;;;;;;4823754;29;20060;-74
2022/02/14 01:47:34;;;;;;;10.60;3.85;;;;;;;;;;4851136;29;20054;-74
2022/02/14 01:50:00;;;;;;;8.70;4.00;;;;;;;;;;4822787;29;20073;-73
2022/02/14 01:52:30;;;;;;;10.18;4.15;;;;;;;;;;4820790;29;20045;-73
2022/02/14 01:54:56;;;;;;;12.45;3.67;;;;;;;;;;4834929;29;20045;-73
2022/02/14 01:57:22;;;;;;;10.65;3.67;;;;;;;;;;4821165;29;20046;-73
2022/02/14 01:59:48;;;;;;;10.95;4.03;;;;;;;;;;4822596;29;20068;-73
2022/02/14 02:02:14;;;;;;;8.00;4.20;;;;;;;;;;4821117;29;20050;-74
2022/02/14 02:04:45;;;;;;;11.18;4.35;;;;;;;;;;4809430;29;20049;-73
2022/02/14 02:07:13;;;;;;;9.57;4.07;;;;;;;;;;4823876;29;20042;-74
2022/02/14 02:09:41;;;;;;;7.75;4.10;;;;;;;;;;4838107;29;20165;-74
2022/02/14 02:12:23;;;;;;;12.90;4.95;;;;;;;;;;4820323;29;20393;-73
2022/02/14 02:14:53;;;;;;;12.00;3.70;;;;;;;;;;4822418;29;20078;-73
2022/02/14 02:17:19;;;;;;;9.88;4.50;;;;;;;;;;4835217;29;20351;-73
2022/02/14 02:19:45;;;;;;;8.38;3.83;;;;;;;;;;4806280;29;20446;-72
2022/02/14 02:22:12;;;;;;;10.60;3.50;;;;;;;;;;4822263;29;20045;-73
2022/02/14 02:24:49;;;;;;;8.73;3.72;;;;;;;;;;4821213;29;20094;-73
2022/02/14 02:27:15;;;;;;;10.40;3.50;;;;;;;;;;4807819;29;20448;-73
2022/02/14 02:29:42;;;;;;;10.65;3.85;;;;;;;;;;4820474;29;20107;-73
2022/02/14 02:32:09;;;;;;;11.95;3.95;;;;;;;;;;4823112;29;20070;-73
2022/02/14 02:34:38;;;;;;;8.10;4.07;;;;;;;;;;4806958;29;20160;-75
2022/02/14 02:37:05;;;;;;;7.72;3.25;;;;;;;;;;4822410;29;20995;-75
2022/02/14 02:39:31;;;;;;;9.98;3.75;;;;;;;;;;4805612;29;20394;-74
2022/02/14 02:41:58;;;;;;;9.50;4.18;;;;;;;;;;4821083;29;20395;-74
2022/02/14 02:44:25;;;;;;;5.47;3.60;;;;;;;;;;4806714;29;20061;-73
2022/02/14 02:46:51;;;;;;;8.93;4.07;;;;;;;;;;4805816;29;20494;-73
2022/02/14 02:49:22;;;;;;;5.90;3.45;;;;;;;;;;4822466;29;20141;-75
2022/02/14 02:51:49;;;;;;;14.23;4.53;;;;;;;;;;4821632;29;20402;-74
2022/02/14 02:54:15;;;;;;;12.63;4.35;;;;;;;;;;4820968;29;20098;-75
2022/02/14 02:56:42;;;;;;;8.80;3.60;;;;;;;;;;4821690;29;20049;-74
2022/02/14 02:59:09;;;;;;;13.80;3.70;;;;;;;;;;4821775;29;20053;-74
2022/02/14 03:01:35;;;;;;;9.85;3.90;;;;;;;;;;4792944;29;20061;-75
2022/02/14 03:04:02;;;;;;;7.38;3.60;;;;;;;;;;4822021;29;20054;-73
2022/02/14 03:06:28;;;;;;;12.07;4.03;;;;;;;;;;4822111;29;20049;-74
2022/02/14 03:08:54;;;;;;;10.50;4.05;;;;;;;;;;4820750;29;20042;-73
2022/02/14 03:11:21;;;;;;;7.13;3.65;;;;;;;;;;4804406;29;20113;-76
2022/02/14 03:13:48;;;;;;;8.70;3.35;;;;;;;;;;4835955;29;20057;-73
2022/02/14 03:16:14;;;;;;;8.80;3.47;;;;;;;;;;4824264;29;20050;-73
2022/02/14 03:18:40;;;;;;;10.70;3.90;;;;;;;;;;4819743;29;20087;-74
2022/02/14 03:21:07;;;;;;;9.65;3.85;;;;;;;;;;4806862;29;20072;-73
2022/02/14 03:23:33;;;;;;;8.48;3.55;;;;;;;;;;4824386;29;20052;-73
2022/02/14 03:25:59;;;;;;;6.32;3.53;;;;;;;;;;4823323;29;20066;-73
2022/02/14 03:28:25;;;;;;;8.68;3.75;;;;;;;;;;4812272;29;20061;-73
2022/02/14 03:30:51;;;;;;;7.85;3.17;;;;;;;;;;4823965;29;20085;-74
2022/02/14 03:33:17;;;;;;;6.75;3.15;;;;;;;;;;4828563;29;20446;-74
2022/02/14 03:35:44;;;;;;;9.00;3.63;;;;;;;;;;4825309;29;20391;-74
2022/02/14 03:38:10;;;;;;;5.80;3.40;;;;;;;;;;4795813;29;20771;-73
2022/02/14 03:40:36;;;;;;;9.20;3.47;;;;;;;;;;4808458;29;20064;-74
2022/02/14 03:43:03;;;;;;;14.25;4.00;;;;;;;;;;4823571;29;20046;-73
2022/02/14 03:45:30;;;;;;;9.15;3.08;;;;;;;;;;4836631;29;20050;-73
2022/02/14 03:47:57;;;;;;;7.57;3.50;;;;;;;;;;4824441;29;20088;-73
2022/02/14 03:50:23;;;;;;;8.20;3.40;;;;;;;;;;4811687;29;20046;-73
2022/02/14 03:52:49;;;;;;;11.48;3.10;;;;;;;;;;4824338;29;20054;-74
2022/02/14 03:55:15;;;;;;;8.15;2.80;;;;;;;;;;4823857;29;20495;-73
2022/02/14 03:57:42;;;;;;;6.47;3.03;;;;;;;;;;4822600;29;20114;-74
2022/02/14 04:00:09;;;;;;;7.90;2.70;;;;;;;;;;4792249;29;20050;-74
2022/02/14 04:02:36;;;;;;;7.07;3.05;;;;;;;;;;4836976;29;20081;-73
2022/02/14 04:05:03;;;;;;;9.60;3.60;;;;;;;;;;4826357;29;20058;-73
2022/02/14 04:07:29;;;;;;;9.23;2.92;;;;;;;;;;4838925;29;20455;-74
2022/02/14 04:09:55;;;;;;;7.57;3.72;;;;;;;;;;4823409;29;20098;-73
2022/02/14 04:12:21;;;;;;;9.07;3.42;;;;;;;;;;4824988;29;20446;-73
2022/02/14 04:14:48;;;;;;;5.78;3.08;;;;;;;;;;4823721;29;20679;-73
2022/02/14 04:17:14;;;;;;;9.13;4.30;;;;;;;;;;4824139;29;20141;-73
2022/02/14 04:19:40;;;;;;;7.55;2.90;;;;;;;;;;4842403;29;20052;-73
2022/02/14 04:22:06;;;;;;;13.07;3.50;;;;;;;;;;4824505;29;20049;-73
2022/02/14 04:24:32;;;;;;;13.27;3.65;;;;;;;;;;4828103;29;20166;-74
2022/02/14 04:26:59;;;;;;;5.22;2.80;;;;;;;;;;4839738;29;20053;-75
2022/02/14 04:29:25;;;;;;;8.45;3.10;;;;;;;;;;4825747;29;20545;-73
2022/02/14 04:31:51;;;;;;;5.70;3.17;;;;;;;;;;4824550;29;20050;-74
2022/02/14 04:34:20;;;;;;;10.60;3.63;;;;;;;;;;4793415;29;20045;-74
2022/02/14 04:36:47;;;;;;;6.57;2.70;;;;;;;;;;4837512;29;20149;-73
2022/02/14 04:39:13;;;;;;;7.85;2.70;;;;;;;;;;4820748;29;20118;-73
2022/02/14 04:41:39;;;;;;;6.88;3.05;;;;;;;;;;4838162;29;20051;-73
2022/02/14 04:44:06;;;;;;;9.02;3.47;;;;;;;;;;4825393;29;20050;-74
2022/02/14 04:46:32;;;;;;;10.65;2.97;;;;;;;;;;4823886;29;20121;-74
2022/02/14 04:48:58;;;;;;;5.53;3.03;;;;;;;;;;4834682;29;20054;-73
2022/02/14 04:51:27;;;;;;;8.32;2.85;;;;;;;;;;4823678;29;20107;-73
2022/02/14 04:53:53;;;;;;;7.25;3.03;;;;;;;;;;4807222;29;20443;-74
2022/02/14 04:56:20;;;;;;;10.02;2.88;;;;;;;;;;4809848;29;20053;-74
2022/02/14 04:58:46;;;;;;;11.20;3.22;;;;;;;;;;4809286;29;20054;-74
2022/02/14 05:01:12;;;;;;;7.97;3.20;;;;;;;;;;4822643;29;20042;-74
2022/02/14 05:03:38;;;;;;;5.82;2.70;;;;;;;;;;4853974;29;20133;-73
2022/02/14 05:06:04;;;;;;;8.75;2.97;;;;;;;;;;4831299;29;20069;-74
2022/02/14 05:08:30;;;;;;;6.53;2.20;;;;;;;;;;4823071;29;20046;-73
2022/02/14 05:10:57;;;;;;;6.85;2.75;;;;;;;;;;4822110;29;20448;-73
2022/02/14 05:13:23;;;;;;;4.85;2.50;;;;;;;;;;4823381;29;20050;-74
2022/02/14 05:15:49;;;;;;;6.20;2.67;;;;;;;;;;4824986;29;20098;-73
2022/02/14 05:18:16;;;;;;;4.65;2.40;;;;;;;;;;4805967;29;20042;-74
2022/02/14 05:20:42;;;;;;;11.35;3.10;;;;;;;;;;4822378;29;20094;-73
2022/02/14 05:23:08;;;;;;;10.23;2.80;;;;;;;;;;4819208;29;20138;-73
2022/02/14 05:25:34;;;;;;;8.02;3.00;;;;;;;;;;4807725;29;20057;-76
2022/02/14 05:28:00;;;;;;;6.97;2.80;;;;;;;;;;4822819;29;20578;-73
2022/02/14 05:30:27;;;;;;;7.30;2.60;;;;;;;;;;4821724;29;20057;-74
2022/02/14 05:32:53;;;;;;;6.60;2.28;;;;;;;;;;4823341;29;20137;-73
2022/02/14 05:35:19;;;;;;;6.75;2.40;;;;;;;;;;4825813;29;20046;-73
2022/02/14 05:37:45;;;;;;;9.30;2.60;;;;;;;;;;4821758;29;20160;-74
2022/02/14 05:40:11;;;;;;;8.15;3.55;;;;;;;;;;4820184;29;20046;-76
2022/02/14 05:42:37;;;;;;;9.68;2.78;;;;;;;;;;4821663;29;20395;-75
2022/02/14 05:45:03;;;;;;;7.20;2.47;;;;;;;;;;4825084;29;20053;-74
2022/02/14 05:47:30;;;;;;;9.27;2.60;;;;;;;;;;4821510;29;20045;-74
2022/02/14 05:49:56;;;;;;;7.88;3.10;;;;;;;;;;4809179;29;20057;-74
2022/02/14 05:52:22;;;;;;;7.40;2.40;;;;;;;;;;4808129;29;20054;-74
2022/02/14 05:54:48;;;;;;;5.97;2.85;;;;;;;;;;4823324;29;20148;-75
2022/02/14 05:57:14;;;;;;;8.27;2.97;;;;;;;;;;4819760;29;20058;-74
2022/02/14 05:59:40;;;;;;;8.07;2.72;;;;;;;;;;4810439;29;20485;-73
2022/02/14 06:02:06;;;;;;;6.88;2.40;;;;;;;;;;4827612;29;20076;-74
2022/02/14 06:04:32;;;;;;;8.35;3.00;;;;;;;;;;4828117;29;20041;-77
2022/02/14 06:06:59;;;;;;;7.30;2.50;;;;;;;;;;4823424;29;20333;-74
2022/02/14 06:09:28;;;;;;;6.63;2.75;;;;;;;;;;4820979;29;20114;-76
2022/02/14 06:11:54;;;;;;;10.60;3.58;;;;;;;;;;4825221;29;20053;-76
2022/02/14 06:14:20;;;;;;;6.43;2.53;;;;;;;;;;4852974;29;20061;-75
2022/02/14 06:16:46;;;;;;;7.68;2.83;;;;;;;;;;4823273;29;20073;-77
2022/02/14 06:19:12;;;;;;;10.40;2.53;;;;;;;;;;4821466;29;20082;-75
2022/02/14 06:21:38;;;;;;;8.23;2.70;;;;;;;;;;4834375;29;20081;-75
2022/02/14 06:24:05;;;;;;;10.20;2.45;;;;;;;;;;4821744;29;20037;-74
2022/02/14 06:26:32;;;;;;;5.45;2.28;;;;;;;;;;4823215;29;20561;-74
2022/02/14 06:29:02;;;;;;;6.10;2.47;;;;;;;;;;4820176;29;20132;-78
2022/02/14 06:31:28;;;;;;;7.45;2.78;;;;;;;;;;4816985;29;20498;-76
2022/02/14 06:33:54;;;;;;;6.82;2.30;;;;;;;;;;4815413;29;20053;-76
2022/02/14 06:36:23;;;;;;;6.03;2.45;;;;;;;;;;4822006;29;20042;-76
2022/02/14 06:38:49;;;;;;;7.13;2.63;;;;;;;;;;4804478;29;20089;-75
2022/02/14 06:41:15;;;;;;;7.50;3.78;;;;;;;;;;4816461;29;20046;-77
2022/02/14 06:43:41;;;;;;;8.70;2.45;;;;;;;;;;4819366;29;20255;-74
2022/02/14 06:46:07;;;;;;;4.10;2.30;;;;;;;;;;4829133;29;20042;-74
2022/02/14 06:48:33;;;;;;;12.75;3.90;;;;;;;;;;4818150;29;20116;-74
2022/02/14 06:50:59;;;;;;;6.88;2.47;;;;;;;;;;4801095;29;20054;-75
2022/02/14 06:53:26;;;;;;;6.15;2.13;;;;;;;;;;4809767;29;20410;-74
2022/02/14 06:55:54;;;;;;;8.95;2.40;;;;;;;;;;4826354;29;20430;-75
2022/02/14 06:58:20;;;;;;;5.30;2.55;;;;;;;;;;4807398;29;20101;-74
2022/02/14 07:00:46;;;;;;;7.28;2.17;;;;;;;;;;4799997;29;20118;-75
2022/02/14 07:03:12;;;;;;;3.47;1.90;;;;;;;;;;4825890;29;20083;-74
2022/02/14 07:05:40;;;;;;;10.20;2.30;;;;;;;;;;4840072;29;20130;-74
2022/02/14 07:08:07;;;;;;;12.85;2.40;;;;;;;;;;4825815;29;20057;-74
2022/02/14 07:10:34;;;;;;;8.15;2.60;;;;;;;;;;4837203;29;20038;-75
2022/02/14 07:13:00;;;;;;;8.30;3.15;;;;;;;;;;4838814;29;20062;-75
2022/02/14 07:15:26;;;;;;;6.50;2.65;;;;;;;;;;4824377;29;20179;-75
2022/02/14 07:17:52;;;;;;;6.18;2.13;;;;;;;;;;4823113;29;20053;-74
2022/02/14 07:20:19;;;;;;;5.20;2.47;;;;;;;;;;4819819;29;20049;-74
2022/02/14 07:22:45;;;;;;;6.38;2.47;;;;;;;;;;4843123;29;20042;-73
2022/02/14 07:25:11;;;;;;;7.78;2.63;;;;;;;;;;4841375;29;20046;-74
2022/02/14 07:27:38;;;;;;;9.13;2.80;;;;;;;;;;4823170;29;20500;-73
2022/02/14 07:30:08;;;;;;;9.45;3.10;;;;;;;;;;4821774;29;20058;-75
2022/02/14 07:32:35;;;;;;;7.10;2.72;;;;;;;;;;4825037;29;20069;-78
2022/02/14 07:35:02;;;;;;;4.25;1.90;;;;;;;;;;4804680;29;20105;-75
2022/02/14 07:37:28;;;;;;;5.35;2.30;;;;;;;;;;4818862;29;20077;-74
2022/02/14 07:39:54;;;;;;;7.07;3.33;;;;;;;;;;4825121;29;20117;-75
2022/02/14 07:42:20;;;;;;;6.30;2.80;;;;;;;;;;4819852;29;20068;-75
2022/02/14 07:44:46;;;;;;;7.53;2.63;;;;;;;;;;4822666;29;20485;-74
2022/02/14 07:47:13;;;;;;;9.60;2.50;;;;;;;;;;4818775;29;20054;-74
2022/02/14 07:49:39;;;;;;;5.45;2.20;;;;;;;;;;4821573;29;20180;-76
2022/02/14 07:52:05;;;;;;;7.82;2.58;;;;;;;;;;4819715;29;20526;-76
2022/02/14 07:54:31;;;;;;;6.50;2.67;;;;;;;;;;4804509;29;20060;-74
2022/02/14 07:56:57;;;;;;;6.50;2.33;;;;;;;;;;4826189;29;20050;-75
2022/02/14 07:59:23;;;;;;;8.55;2.83;;;;;;;;;;4832524;29;20668;-75
2022/02/14 08:01:50;;;;;;;5.22;2.22;;;;;;;;;;4812476;29;20050;-77
2022/02/14 08:04:16;;;;;;;7.20;2.40;;;;;;;;;;4817922;29;20050;-74
2022/02/14 08:06:42;;;;;;;7.38;2.45;;;;;;;;;;4802776;29;20106;-75
2022/02/14 08:09:11;;;;;;;9.50;2.50;;;;;;;;;;4806271;29;20065;-74
2022/02/14 08:11:37;;;;;;;5.97;2.38;;;;;;;;;;4820848;29;20125;-75
2022/02/14 08:14:03;;;;;;;8.55;2.53;;;;;;;;;;4808547;29;20050;-78
2022/02/14 08:16:31;;;;;;;7.80;2.35;;;;;;;;;;4824488;29;20391;-78
2022/02/14 08:18:59;;;;;;;7.07;2.13;;;;;;;;;;4829307;29;20456;-76
2022/02/14 08:21:26;;;;;;;5.28;2.10;;;;;;;;;;4821552;29;20122;-78
2022/02/14 08:23:52;;;;;;;6.28;2.00;;;;;;;;;;4811706;29;20054;-80
2022/02/14 08:26:18;;;;;;;6.22;2.40;;;;;;;;;;4814889;29;20095;-77
2022/02/14 08:28:45;;;;;;;7.72;2.28;;;;;;;;;;4803706;29;21459;-79
2022/02/14 08:31:11;;;;;;;4.57;2.20;;;;;;;;;;4801964;29;20054;-78
2022/02/14 08:33:37;;;;;;;4.63;2.63;;;;;;;;;;4818075;29;20069;-78
2022/02/14 08:36:05;;;;;;;8.68;2.67;;;;;;;;;;4833508;29;20038;-78
2022/02/14 08:38:32;;;;;;;5.95;2.80;;;;;;;;;;4809651;29;20064;-81
2022/02/14 08:40:58;;;;;;;5.55;2.67;;;;;;;;;;4820418;29;20477;-78
2022/02/14 08:43:24;;;;;;;8.05;3.40;;;;;;;;;;4823227;29;20497;-77
2022/02/14 08:45:50;;;;;;;6.97;3.28;;;;;;;;;;4807228;29;20447;-77
2022/02/14 08:48:17;;;;;;;7.85;3.55;;;;;;;;;;4809631;29;20185;-78
2022/02/14 08:50:44;;;;;;;7.35;3.85;;;;;;;;;;4813949;29;20050;-76
2022/02/14 08:53:11;;;;;;;6.78;4.10;;;;;;;;;;4824498;29;20459;-78
2022/02/14 08:55:37;;;;;;;8.95;4.72;;;;;;;;;;4838546;29;20508;-78
2022/02/14 08:58:03;;;;;;;9.15;4.53;;;;;;;;;;4824752;29;20042;-78
2022/02/14 09:00:32;;;;;;;6.82;4.82;;;;;;;;;;4822159;29;20136;-78
2022/02/14 09:02:59;;;;;;;8.48;5.18;;;;;;;;;;4840230;29;20049;-78
2022/02/14 09:05:26;;;;;;;9.55;5.45;;;;;;;;;;4809971;29;20054;-79
2022/02/14 09:07:52;;;;;;;8.00;5.70;;;;;;;;;;4809148;29;20053;-79
2022/02/14 09:10:18;;;;;;;11.30;6.40;;;;;;;;;;4825806;29;20133;-78
2022/02/14 09:12:46;;;;;;;11.70;6.22;;;;;;;;;;4809730;29;20489;-79
2022/02/14 09:15:12;;;;;;;11.50;6.40;;;;;;;;;;4821487;29;20060;-79
2022/02/14 09:17:38;;;;;;;8.18;5.35;;;;;;;;;;4837359;29;20086;-80
2022/02/14 09:20:04;;;;;;;10.25;5.72;;;;;;;;;;4820789;29;20128;-76
2022/02/14 09:22:30;;;;;;;7.47;4.80;;;;;;;;;;4822428;29;20093;-77
2022/02/14 09:24:57;;;;;;;6.75;4.30;;;;;;;;;;4811130;29;20056;-78
2022/02/14 09:27:23;;;;;;;9.45;4.43;;;;;;;;;;4808329;29;20547;-75
2022/02/14 09:29:50;;;;;;;7.78;4.40;;;;;;;;;;4811227;29;20383;-78
2022/02/14 09:32:16;;;;;;;8.48;4.18;;;;;;;;;;4808930;29;20049;-78
2022/02/14 09:34:43;;;;;;;6.60;4.03;;;;;;;;;;4822045;29;20061;-78
2022/02/14 09:37:10;;;;;;;8.30;3.83;;;;;;;;;;4823544;29;20088;-78
2022/02/14 09:39:36;;;;;;;6.85;3.60;;;;;;;;;;4828456;29;20058;-78
2022/02/14 09:42:04;;;;;;;7.78;3.33;;;;;;;;;;4825245;29;20061;-78
2022/02/14 09:44:31;;;;;;;11.82;3.42;;;;;;;;;;4822447;29;20068;-77
2022/02/14 09:46:57;;;;;;;6.30;3.17;;;;;;;;;;4823440;29;20041;-79
2022/02/14 09:49:24;;;;;;;11.18;3.67;;;;;;;;;;4810092;29;20282;-78
2022/02/14 09:51:53;;;;;;;9.05;3.03;;;;;;;;;;4809697;29;20077;-76
2022/02/14 09:54:20;;;;;;;7.55;3.55;;;;;;;;;;4810438;29;20115;-76
2022/02/14 09:56:46;;;;;;;6.50;3.35;;;;;;;;;;4806803;29;20465;-76
2022/02/14 09:59:14;;;;;;;7.85;3.20;;;;;;;;;;4821743;29;20046;-74
2022/02/14 10:01:40;;;;;;;7.13;3.08;;;;;;;;;;4807012;29;20165;-75
2022/02/14 10:04:07;;;;;;;8.35;2.97;;;;;;;;;;4820339;29;20516;-73
2022/02/14 10:06:40;;;;;;;9.88;3.33;;;;;;;;;;4821956;29;20065;-75
2022/02/14 10:09:19;;;;;;;8.57;2.95;;;;;;;;;;4822953;29;20399;-73
2022/02/14 10:11:59;;;;;;;4.38;2.33;;;;;;;;;;4821575;29;20074;-73
2022/02/14 10:14:25;;;;;;;10.60;3.30;;;;;;;;;;4823651;29;20070;-78
2022/02/14 10:17:08;;;;;;;7.18;2.92;;;;;;;;;;4823269;29;20053;-76
2022/02/14 10:19:45;;;;;;;7.97;2.78;;;;;;;;;;4823245;29;20512;-80
2022/02/14 10:22:12;;;;;;;5.07;2.10;;;;;;;;;;4822622;29;20050;-76
2022/02/14 10:24:42;;;;;;;10.65;3.25;;;;;;;;;;4806976;29;20069;-78
2022/02/14 10:27:09;;;;;;;6.32;2.17;;;;;;;;;;4824992;29;20042;-77
2022/02/14 10:29:35;;;;;;;9.57;1.83;;;;;;;;;;4825184;29;20122;-78
2022/02/14 10:32:03;;;;;;;7.00;2.03;;;;;;;;;;4834436;29;20050;-78
2022/02/14 10:34:33;;;;;;;8.73;2.08;;;;;;;;;;4822743;29;20037;-76
2022/02/14 10:36:59;;;;;;;5.75;1.60;;;;;;;;;;4801913;29;20053;-77
2022/02/14 10:39:27;;;;;;;4.22;1.30;;;;;;;;;;4820620;29;20191;-78
2022/02/14 10:41:59;;;;;;;9.20;1.83;;;;;;;;;;4835596;29;20111;-79
2022/02/14 10:47:12;;;;;;;5.70;1.55;;;;;;;;;;4836707;29;20057;-80
2022/02/14 10:49:39;;;;;;;4.28;1.40;;;;;;;;;;4820542;29;20064;-78
2022/02/14 10:52:06;;;;;;;7.25;1.73;;;;;;;;;;4807790;29;20549;-81
2022/02/14 10:54:36;;;;;;;6.07;1.50;;;;;;;;;;4823154;29;20105;-79
2022/02/14 10:57:03;;;;;;;6.43;1.63;;;;;;;;;;4822201;29;20064;-80
2022/02/14 10:59:29;;;;;;;4.93;1.98;;;;;;;;;;4815438;29;20137;-76
2022/02/14 11:01:56;;;;;;;6.25;2.00;;;;;;;;;;4806676;29;20052;-78
2022/02/14 11:04:22;;;;;;;7.05;2.33;;;;;;;;;;4818054;29;20050;-80
2022/02/14 11:06:48;;;;;;;7.00;2.33;;;;;;;;;;4804594;29;20077;-80
2022/02/14 11:09:15;;;;;;;10.30;2.67;;;;;;;;;;4805185;29;20050;-82
2022/02/14 11:11:46;;;;;;;9.80;3.10;;;;;;;;;;4820836;29;20042;-75
2022/02/14 11:14:12;;;;;;;7.60;2.70;;;;;;;;;;4821201;29;20546;-76
2022/02/14 11:16:40;;;;;;;11.73;3.55;;;;;;;;;;4787476;29;20096;-81
2022/02/14 11:19:09;;;;;;;11.77;2.83;;;;;;;;;;4821210;29;20053;-78
2022/02/14 11:21:35;;;;;;;8.98;2.50;;;;;;;;;;4824849;29;20251;-75
2022/02/14 11:24:08;;;;;;;8.02;2.95;;;;;;;;;;4819426;29;20367;-77
2022/02/14 11:26:41;;;;;;;4.38;2.30;;;;;;;;;;4820881;29;20045;-76
2022/02/14 11:29:34;;;;;;;8.37;2.97;;;;;;;;;;4824358;29;20042;-76
2022/02/14 11:32:19;;;;;;;6.88;2.50;;;;;;;;;;4828784;29;20124;-77
2022/02/14 11:34:52;;;;;;;7.82;2.47;;;;;;;;;;4820568;29;20050;-77
2022/02/14 11:37:18;;;;;;;5.45;2.30;;;;;;;;;;4817689;29;20054;-78
2022/02/14 11:39:44;;;;;;;6.60;2.28;;;;;;;;;;4813537;29;20168;-81
2022/02/14 11:42:10;;;;;;;6.50;2.05;;;;;;;;;;4790213;29;20054;-78
2022/02/14 11:44:36;;;;;;;6.35;2.00;;;;;;;;;;4816143;29;20166;-79
2022/02/14 11:47:03;;;;;;;5.25;2.40;;;;;;;;;;4823212;29;20125;-78
2022/02/14 11:49:38;;;;;;;4.50;2.67;;;;;;;;;;4818425;29;20857;-74
2022/02/14 11:52:06;;;;;;;9.13;2.40;;;;;;;;;;4822777;29;20069;-77
2022/02/14 11:54:36;;;;;;;6.70;2.40;;;;;;;;;;4813765;29;20402;-73
2022/02/14 11:57:17;;;;;;;6.40;2.25;;;;;;;;;;4818547;29;20070;-75
2022/02/14 11:59:44;;;;;;;8.10;2.10;;;;;;;;;;4825283;29;20047;-74
2022/02/14 12:02:11;;;;;;;10.38;2.72;;;;;;;;;;4825639;29;20050;-74
2022/02/14 12:04:38;;;;;;;6.97;2.30;;;;;;;;;;4840777;29;20082;-75
2022/02/14 12:07:23;;;;;;;9.93;2.10;;;;;;;;;;4841139;29;20137;-75
2022/02/14 12:09:58;;;;;;;4.45;1.98;;;;;;;;;;4843100;29;20117;-74
2022/02/14 12:12:39;;;;;;;7.65;2.45;;;;;;;;;;4842410;29;20084;-76
2022/02/14 12:20:38;;;;;;;6.88;2.20;;;;;;;;;;4838616;29;20069;-74
2022/02/14 12:23:05;;;;;;;8.32;2.60;;;;;;;;;;4822685;29;20061;-74
2022/02/14 12:25:31;;;;;;;8.30;2.30;;;;;;;;;;4838581;29;20146;-74
2022/02/14 12:27:58;;;;;;;3.33;1.35;;;;;;;;;;4827697;29;20096;-76
2022/02/14 12:30:26;;;;;;;4.28;1.60;;;;;;;;;;4810967;29;20145;-74
2022/02/14 12:32:58;;;;;;;5.70;1.60;;;;;;;;;;4824518;29;20053;-74
2022/02/14 12:35:28;;;;;;;8.27;1.73;;;;;;;;;;4823685;29;20046;-74
2022/02/14 12:37:54;;;;;;;6.22;1.67;;;;;;;;;;4823367;29;20093;-74
2022/02/14 12:40:21;;;;;;;8.77;2.00;;;;;;;;;;4822164;29;20180;-76
2022/02/14 12:42:47;;;;;;;8.30;1.88;;;;;;;;;;4824331;29;20057;-73
2022/02/14 12:45:14;;;;;;;8.07;2.05;;;;;;;;;;4828810;29;20053;-75
2022/02/14 12:47:41;;;;;;;7.68;2.05;;;;;;;;;;4823612;29;20050;-74
2022/02/14 12:50:14;;;;;;;8.93;2.08;;;;;;;;;;4824341;29;20133;-74
2022/02/14 12:52:45;;;;;;;5.65;1.75;;;;;;;;;;4821878;29;20049;-73
2022/02/14 12:55:12;;;;;;;5.97;1.70;;;;;;;;;;4809357;29;20059;-76
2022/02/14 12:57:46;;;;;;;8.63;1.83;;;;;;;;;;4809056;29;20346;-75
2022/02/14 13:00:29;;;;;;;7.95;1.83;;;;;;;;;;4821947;29;20094;-75
2022/02/14 13:03:02;;;;;;;9.07;2.25;;;;;;;;;;4816834;29;20052;-75
2022/02/14 13:05:29;;;;;;;6.15;1.90;;;;;;;;;;4847547;29;20054;-74
2022/02/14 13:07:55;;;;;;;7.95;2.25;;;;;;;;;;4807443;29;20502;-74
2022/02/14 13:10:23;;;;;;;8.10;1.63;;;;;;;;;;4824142;29;20050;-75
2022/02/14 13:12:59;;;;;;;6.10;1.55;;;;;;;;;;4822556;29;20152;-74
2022/02/14 13:15:25;;;;;;;8.65;1.42;;;;;;;;;;4821943;29;20046;-75
2022/02/14 13:17:51;;;;;;;6.57;1.58;;;;;;;;;;4807268;29;20045;-73
2022/02/14 13:20:17;;;;;;;5.07;1.75;;;;;;;;;;4821758;29;20058;-74
2022/02/14 13:22:44;;;;;;;3.20;1.05;;;;;;;;;;4821356;29;21331;-74
2022/02/14 13:25:19;;;;;;;6.85;1.40;;;;;;;;;;4805471;29;20046;-75
2022/02/14 13:27:45;;;;;;;3.45;1.00;;;;;;;;;;4820723;29;20042;-78
2022/02/14 13:30:14;;;;;;;3.78;1.15;;;;;;;;;;4822010;29;20069;-75
2022/02/14 13:32:45;;;;;;;6.00;1.02;;;;;;;;;;4805551;29;20054;-77
2022/02/14 13:35:21;;;;;;;3.00;1.00;;;;;;;;;;4804305;29;20525;-77
2022/02/14 13:37:51;;;;;;;5.90;1.80;;;;;;;;;;4821614;29;20056;-77
2022/02/14 13:40:18;;;;;;;2.92;0.88;;;;;;;;;;4820360;29;21574;-77
2022/02/14 13:42:45;;;;;;;5.03;1.23;;;;;;;;;;4807456;29;20099;-76
2022/02/14 13:45:11;;;;;;;3.90;1.17;;;;;;;;;;4820291;29;20058;-79
2022/02/14 13:47:37;;;;;;;3.65;0.85;;;;;;;;;;4821255;29;20046;-79
2022/02/14 13:50:22;;;;;;;3.33;0.63;;;;;;;;;;4805088;29;20064;-81
2022/02/14 13:52:49;;;;;;;6.10;1.10;;;;;;;;;;4834168;29;20062;-79
2022/02/14 13:55:22;;;;;;;3.67;0.82;;;;;;;;;;4810932;29;20104;-80
2022/02/14 13:57:48;;;;;;;5.63;0.95;;;;;;;;;;4822980;29;20058;-80
2022/02/14 14:00:33;;;;;;;4.25;0.90;;;;;;;;;;4824671;29;20128;-75
2022/02/14 14:03:04;;;;;;;6.18;1.45;;;;;;;;;;4823698;29;20161;-76
2022/02/14 14:05:40;;;;;;;4.75;0.80;;;;;;;;;;4818750;29;20117;-71
2022/02/14 14:08:07;;;;;;;4.80;0.95;;;;;;;;;;4826856;29;20061;-74
2022/02/14 14:10:41;;;;;;;3.40;0.80;;;;;;;;;;4808163;29;20084;-73
2022/02/14 14:13:08;;;;;;;7.90;1.33;;;;;;;;;;4821598;29;20041;-74
2022/02/14 14:15:37;;;;;;;2.70;0.85;;;;;;;;;;4818541;29;20047;-75
2022/02/14 14:18:04;;;;;;;7.72;1.23;;;;;;;;;;4836097;29;21049;-74
2022/02/14 14:20:30;;;;;;;4.07;1.00;;;;;;;;;;4805982;29;20068;-74
2022/02/14 14:22:57;;;;;;;3.83;1.30;;;;;;;;;;4820612;29;20050;-73
2022/02/14 14:25:24;;;;;;;5.18;1.23;;;;;;;;;;4818852;29;20048;-77
2022/02/14 14:27:51;;;;;;;4.80;1.35;;;;;;;;;;4822515;29;20671;-75
2022/02/14 14:30:21;;;;;;;6.03;1.20;;;;;;;;;;4823637;29;20070;-73
2022/02/14 14:32:47;;;;;;;3.13;1.02;;;;;;;;;;4822204;29;20049;-74
2022/02/14 14:35:15;;;;;;;5.60;1.35;;;;;;;;;;4833863;29;20060;-74
2022/02/14 14:37:42;;;;;;;5.88;1.55;;;;;;;;;;4851243;29;20448;-75
2022/02/14 14:40:09;;;;;;;4.65;1.25;;;;;;;;;;4822425;29;20046;-76
2022/02/14 14:42:35;;;;;;;5.22;1.25;;;;;;;;;;4824219;29;20049;-75
2022/02/14 14:45:01;;;;;;;4.95;1.70;;;;;;;;;;4823928;29;20049;-78
2022/02/14 14:47:28;;;;;;;3.08;1.00;;;;;;;;;;4825489;29;20042;-76
2022/02/14 14:49:54;;;;;;;8.32;1.52;;;;;;;;;;4822043;29;20065;-76